sensor_id;sensor_type;location;lat;lon;timestamp;temperature;humidity
11474;DHT22;5793;52.238;13.438;2022-10-15T00:00:16;13.50;99.90
11474;DHT22;5793;52.238;13.438;2022-10-15T00:02:44;13.50;99.90
11474;DHT22;5793;52.238;13.438;2022-10-15T00:05:13;13.50;99.90
11474;DHT22;5793;52.238;13.438;2022-10-15T00:07:41;13.50;99.90
11474;DHT22;5793;52.238;13.438;2022-10-15T00:10:09;13.50;99.90
11474;DHT22;5793;52.238;13.438;2022-10-15T00:12:37;13.50;99.90
11474;DHT22;5793;52.238;13.438;2022-10-15T00:15:05;13.50;99.90
11474;DHT22;5793;52.238;13.438;2022-10-15T00:17:34;13.50;99.90
11474;DHT22;5793;52.238;13.438;2022-10-15T00:20:04;13.50;99.90
11474;DHT22;5793;52.238;13.438;2022-10-15T00:22:34;13.50;99.90
11474;DHT22;5793;52.238;13.438;2022-10-15T00:25:02;13.50;99.90
11474;DHT22;5793;52.238;13.438;2022-10-15T00:27:30;13.50;99.90
11474;DHT22;5793;52.238;13.438;2022-10-15T00:29:58;13.50;99.90
11474;DHT22;5793;52.238;13.438;2022-10-15T00:32:29;13.50;99.90
11474;DHT22;5793;52.238;13.438;2022-10-15T00:34:57;13.50;99.90
11474;DHT22;5793;52.238;13.438;2022-10-15T00:37:24;13.50;99.90
11474;DHT22;5793;52.238;13.438;2022-10-15T00:39:53;13.40;99.90
11474;DHT22;5793;52.238;13.438;2022-10-15T00:42:22;13.40;99.90
11474;DHT22;5793;52.238;13.438;2022-10-15T00:44:53;13.40;99.90
11474;DHT22;5793;52.238;13.438;2022-10-15T00:47:26;13.40;99.90
11474;DHT22;5793;52.238;13.438;2022-10-15T00:50:02;13.40;99.90
11474;DHT22;5793;52.238;13.438;2022-10-15T00:52:36;13.40;99.90
11474;DHT22;5793;52.238;13.438;2022-10-15T00:55:09;13.40;99.90
11474;DHT22;5793;52.238;13.438;2022-10-15T00:57:39;13.30;99.90
11474;DHT22;5793;52.238;13.438;2022-10-15T01:00:09;13.30;99.90
11474;DHT22;5793;52.238;13.438;2022-10-15T01:02:38;13.30;99.90
11474;DHT22;5793;52.238;13.438;2022-10-15T01:05:06;13.30;99.90
11474;DHT22;5793;52.238;13.438;2022-10-15T01:07:34;13.30;99.90
11474;DHT22;5793;52.238;13.438;2022-10-15T01:10:03;13.30;99.90
11474;DHT22;5793;52.238;13.438;2022-10-15T01:12:41;13.40;99.90
11474;DHT22;5793;52.238;13.438;2022-10-15T01:15:14;13.40;99.90
11474;DHT22;5793;52.238;13.438;2022-10-15T01:17:46;13.40;99.90
11474;DHT22;5793;52.238;13.438;2022-10-15T01:20:36;13.40;99.90
11474;DHT22;5793;52.238;13.438;2022-10-15T01:29:50;13.40;99.90
11474;DHT22;5793;52.238;13.438;2022-10-15T01:32:24;13.30;99.90
11474;DHT22;5793;52.238;13.438;2022-10-15T01:34:57;13.30;99.90
11474;DHT22;5793;52.238;13.438;2022-10-15T01:37:35;13.30;99.90
11474;DHT22;5793;52.238;13.438;2022-10-15T01:40:07;13.30;99.90
11474;DHT22;5793;52.238;13.438;2022-10-15T01:42:40;13.30;99.90
11474;DHT22;5793;52.238;13.438;2022-10-15T01:45:15;13.40;99.90
11474;DHT22;5793;52.238;13.438;2022-10-15T01:47:48;13.40;99.90
11474;DHT22;5793;52.238;13.438;2022-10-15T01:50:19;13.40;99.90
11474;DHT22;5793;52.238;13.438;2022-10-15T01:52:48;13.40;99.90
11474;DHT22;5793;52.238;13.438;2022-10-15T01:55:18;13.30;99.90
11474;DHT22;5793;52.238;13.438;2022-10-15T01:57:48;13.40;99.90
11474;DHT22;5793;52.238;13.438;2022-10-15T02:00:16;13.40;99.90
11474;DHT22;5793;52.238;13.438;2022-10-15T02:02:44;13.40;99.90
11474;DHT22;5793;52.238;13.438;2022-10-15T02:05:16;13.40;99.90
11474;DHT22;5793;52.238;13.438;2022-10-15T02:07:51;13.40;99.90
11474;DHT22;5793;52.238;13.438;2022-10-15T02:10:25;13.40;99.90
11474;DHT22;5793;52.238;13.438;2022-10-15T02:13:12;13.40;99.90
11474;DHT22;5793;52.238;13.438;2022-10-15T02:15:46;13.40;99.90
11474;DHT22;5793;52.238;13.438;2022-10-15T02:18:19;13.30;99.90
11474;DHT22;5793;52.238;13.438;2022-10-15T02:20:54;13.30;99.90
11474;DHT22;5793;52.238;13.438;2022-10-15T02:23:25;13.30;99.90
11474;DHT22;5793;52.238;13.438;2022-10-15T02:25:54;13.40;99.90
11474;DHT22;5793;52.238;13.438;2022-10-15T02:28:24;13.30;99.90
11474;DHT22;5793;52.238;13.438;2022-10-15T02:30:53;13.30;99.90
11474;DHT22;5793;52.238;13.438;2022-10-15T02:33:23;13.40;99.90
11474;DHT22;5793;52.238;13.438;2022-10-15T02:35:54;13.40;99.90
11474;DHT22;5793;52.238;13.438;2022-10-15T02:38:24;13.40;99.90
11474;DHT22;5793;52.238;13.438;2022-10-15T02:40:52;13.40;99.90
11474;DHT22;5793;52.238;13.438;2022-10-15T02:43:21;13.40;99.90
11474;DHT22;5793;52.238;13.438;2022-10-15T02:45:49;13.50;99.90
11474;DHT22;5793;52.238;13.438;2022-10-15T02:48:17;13.40;99.90
11474;DHT22;5793;52.238;13.438;2022-10-15T02:50:44;13.40;99.90
11474;DHT22;5793;52.238;13.438;2022-10-15T02:53:13;13.40;99.90
11474;DHT22;5793;52.238;13.438;2022-10-15T02:55:41;13.40;99.90
11474;DHT22;5793;52.238;13.438;2022-10-15T02:58:09;13.40;99.90
11474;DHT22;5793;52.238;13.438;2022-10-15T03:00:37;13.40;99.90
11474;DHT22;5793;52.238;13.438;2022-10-15T03:03:05;13.40;99.90
11474;DHT22;5793;52.238;13.438;2022-10-15T03:05:33;13.40;99.90
11474;DHT22;5793;52.238;13.438;2022-10-15T03:08:01;13.30;99.90
11474;DHT22;5793;52.238;13.438;2022-10-15T03:10:30;13.30;99.90
11474;DHT22;5793;52.238;13.438;2022-10-15T03:13:01;13.30;99.90
11474;DHT22;5793;52.238;13.438;2022-10-15T03:15:29;13.30;99.90
11474;DHT22;5793;52.238;13.438;2022-10-15T03:17:57;13.20;99.90
11474;DHT22;5793;52.238;13.438;2022-10-15T03:20:25;13.20;99.90
11474;DHT22;5793;52.238;13.438;2022-10-15T03:22:53;13.20;99.90
11474;DHT22;5793;52.238;13.438;2022-10-15T03:25:21;13.20;99.90
11474;DHT22;5793;52.238;13.438;2022-10-15T03:27:50;13.20;99.90
11474;DHT22;5793;52.238;13.438;2022-10-15T03:30:18;13.20;99.90
11474;DHT22;5793;52.238;13.438;2022-10-15T03:32:46;13.20;99.90
11474;DHT22;5793;52.238;13.438;2022-10-15T03:35:14;13.20;99.90
11474;DHT22;5793;52.238;13.438;2022-10-15T03:37:42;13.10;99.90
11474;DHT22;5793;52.238;13.438;2022-10-15T03:40:10;13.10;99.90
11474;DHT22;5793;52.238;13.438;2022-10-15T03:42:40;13.10;99.90
11474;DHT22;5793;52.238;13.438;2022-10-15T03:45:10;13.00;99.90
11474;DHT22;5793;52.238;13.438;2022-10-15T03:47:37;13.00;99.90
11474;DHT22;5793;52.238;13.438;2022-10-15T03:50:05;13.00;99.90
11474;DHT22;5793;52.238;13.438;2022-10-15T03:52:33;12.90;99.90
11474;DHT22;5793;52.238;13.438;2022-10-15T03:55:03;12.90;99.90
11474;DHT22;5793;52.238;13.438;2022-10-15T03:57:30;12.90;99.90
11474;DHT22;5793;52.238;13.438;2022-10-15T03:59:58;12.80;99.90
11474;DHT22;5793;52.238;13.438;2022-10-15T04:02:29;12.80;99.90
11474;DHT22;5793;52.238;13.438;2022-10-15T04:04:58;12.90;99.90
11474;DHT22;5793;52.238;13.438;2022-10-15T04:07:26;12.90;99.90
11474;DHT22;5793;52.238;13.438;2022-10-15T04:09:53;12.90;99.90
11474;DHT22;5793;52.238;13.438;2022-10-15T04:12:21;12.80;99.90
11474;DHT22;5793;52.238;13.438;2022-10-15T04:14:49;12.80;99.90
11474;DHT22;5793;52.238;13.438;2022-10-15T04:17:17;12.70;99.90
11474;DHT22;5793;52.238;13.438;2022-10-15T04:19:46;12.70;99.90
11474;DHT22;5793;52.238;13.438;2022-10-15T04:22:14;12.60;99.90
11474;DHT22;5793;52.238;13.438;2022-10-15T04:24:42;12.60;99.90
11474;DHT22;5793;52.238;13.438;2022-10-15T04:27:12;12.50;99.90
11474;DHT22;5793;52.238;13.438;2022-10-15T04:29:40;12.50;99.90
11474;DHT22;5793;52.238;13.438;2022-10-15T04:32:12;12.40;99.90
11474;DHT22;5793;52.238;13.438;2022-10-15T04:34:40;12.30;99.90
11474;DHT22;5793;52.238;13.438;2022-10-15T04:37:09;12.40;99.90
11474;DHT22;5793;52.238;13.438;2022-10-15T04:39:37;12.40;99.90
11474;DHT22;5793;52.238;13.438;2022-10-15T04:42:05;12.30;99.90
11474;DHT22;5793;52.238;13.438;2022-10-15T04:44:32;12.30;99.90
11474;DHT22;5793;52.238;13.438;2022-10-15T04:47:00;12.30;99.90
11474;DHT22;5793;52.238;13.438;2022-10-15T04:49:28;12.30;99.90
11474;DHT22;5793;52.238;13.438;2022-10-15T04:51:56;12.40;99.90
11474;DHT22;5793;52.238;13.438;2022-10-15T04:54:25;12.40;99.90
11474;DHT22;5793;52.238;13.438;2022-10-15T04:56:58;12.40;99.90
11474;DHT22;5793;52.238;13.438;2022-10-15T04:59:26;12.50;99.90
11474;DHT22;5793;52.238;13.438;2022-10-15T05:01:53;12.60;99.90
11474;DHT22;5793;52.238;13.438;2022-10-15T05:04:21;12.60;99.90
11474;DHT22;5793;52.238;13.438;2022-10-15T05:06:49;12.60;99.90
11474;DHT22;5793;52.238;13.438;2022-10-15T05:09:17;12.70;99.90
11474;DHT22;5793;52.238;13.438;2022-10-15T05:11:46;12.80;99.90
11474;DHT22;5793;52.238;13.438;2022-10-15T05:14:14;12.80;99.90
11474;DHT22;5793;52.238;13.438;2022-10-15T05:16:41;12.80;99.90
11474;DHT22;5793;52.238;13.438;2022-10-15T05:19:10;12.80;99.90
11474;DHT22;5793;52.238;13.438;2022-10-15T05:21:38;12.90;99.90
11474;DHT22;5793;52.238;13.438;2022-10-15T05:24:06;12.90;99.90
11474;DHT22;5793;52.238;13.438;2022-10-15T05:26:34;12.90;99.90
11474;DHT22;5793;52.238;13.438;2022-10-15T05:29:03;12.80;99.90
11474;DHT22;5793;52.238;13.438;2022-10-15T05:31:32;12.70;99.90
11474;DHT22;5793;52.238;13.438;2022-10-15T05:34:05;12.70;99.90
11474;DHT22;5793;52.238;13.438;2022-10-15T05:36:33;12.60;99.90
11474;DHT22;5793;52.238;13.438;2022-10-15T05:39:04;12.50;99.90
11474;DHT22;5793;52.238;13.438;2022-10-15T05:41:35;12.40;99.90
11474;DHT22;5793;52.238;13.438;2022-10-15T05:44:05;12.40;99.90
11474;DHT22;5793;52.238;13.438;2022-10-15T05:46:33;12.30;99.90
11474;DHT22;5793;52.238;13.438;2022-10-15T05:49:01;12.30;99.90
11474;DHT22;5793;52.238;13.438;2022-10-15T05:51:28;12.30;99.90
11474;DHT22;5793;52.238;13.438;2022-10-15T05:53:57;12.30;99.90
11474;DHT22;5793;52.238;13.438;2022-10-15T05:56:25;12.30;99.90
11474;DHT22;5793;52.238;13.438;2022-10-15T05:58:53;12.40;99.90
11474;DHT22;5793;52.238;13.438;2022-10-15T06:01:22;12.40;99.90
11474;DHT22;5793;52.238;13.438;2022-10-15T06:03:50;12.50;99.90
11474;DHT22;5793;52.238;13.438;2022-10-15T06:06:20;12.40;99.90
11474;DHT22;5793;52.238;13.438;2022-10-15T06:08:48;12.50;99.90
11474;DHT22;5793;52.238;13.438;2022-10-15T06:11:16;12.60;99.90
11474;DHT22;5793;52.238;13.438;2022-10-15T06:13:45;12.70;99.90
11474;DHT22;5793;52.238;13.438;2022-10-15T06:16:14;12.80;99.90
11474;DHT22;5793;52.238;13.438;2022-10-15T06:18:51;12.90;99.90
11474;DHT22;5793;52.238;13.438;2022-10-15T06:21:19;13.00;99.90
11474;DHT22;5793;52.238;13.438;2022-10-15T06:23:47;13.10;99.90
11474;DHT22;5793;52.238;13.438;2022-10-15T06:26:14;13.10;99.90
11474;DHT22;5793;52.238;13.438;2022-10-15T06:28:42;13.30;99.90
11474;DHT22;5793;52.238;13.438;2022-10-15T06:31:10;13.40;99.90
11474;DHT22;5793;52.238;13.438;2022-10-15T06:33:38;13.40;99.90
11474;DHT22;5793;52.238;13.438;2022-10-15T06:36:09;13.50;99.90
11474;DHT22;5793;52.238;13.438;2022-10-15T06:38:39;13.60;99.90
11474;DHT22;5793;52.238;13.438;2022-10-15T06:41:09;13.60;99.90
11474;DHT22;5793;52.238;13.438;2022-10-15T06:43:37;13.60;99.90
11474;DHT22;5793;52.238;13.438;2022-10-15T06:46:05;13.60;99.90
11474;DHT22;5793;52.238;13.438;2022-10-15T06:48:33;13.70;99.90
11474;DHT22;5793;52.238;13.438;2022-10-15T06:51:02;13.80;99.90
11474;DHT22;5793;52.238;13.438;2022-10-15T06:53:32;13.80;99.90
11474;DHT22;5793;52.238;13.438;2022-10-15T06:56:01;13.90;99.90
11474;DHT22;5793;52.238;13.438;2022-10-15T06:58:29;14.10;99.90
11474;DHT22;5793;52.238;13.438;2022-10-15T07:01:01;14.20;99.90
11474;DHT22;5793;52.238;13.438;2022-10-15T07:03:28;14.30;99.90
11474;DHT22;5793;52.238;13.438;2022-10-15T07:06:00;14.40;99.90
11474;DHT22;5793;52.238;13.438;2022-10-15T07:08:28;14.50;99.90
11474;DHT22;5793;52.238;13.438;2022-10-15T07:11:00;14.50;99.90
11474;DHT22;5793;52.238;13.438;2022-10-15T07:13:28;14.60;99.90
11474;DHT22;5793;52.238;13.438;2022-10-15T07:15:56;14.80;99.90
11474;DHT22;5793;52.238;13.438;2022-10-15T07:18:23;15.00;99.90
11474;DHT22;5793;52.238;13.438;2022-10-15T07:20:51;15.20;99.90
11474;DHT22;5793;52.238;13.438;2022-10-15T07:23:19;15.40;99.90
11474;DHT22;5793;52.238;13.438;2022-10-15T07:25:52;15.50;99.90
11474;DHT22;5793;52.238;13.438;2022-10-15T07:28:21;15.70;99.90
11474;DHT22;5793;52.238;13.438;2022-10-15T07:30:49;15.70;99.90
11474;DHT22;5793;52.238;13.438;2022-10-15T07:33:17;15.60;99.90
11474;DHT22;5793;52.238;13.438;2022-10-15T07:35:45;15.60;99.90
11474;DHT22;5793;52.238;13.438;2022-10-15T07:38:13;15.70;99.90
11474;DHT22;5793;52.238;13.438;2022-10-15T07:40:42;15.90;99.90
11474;DHT22;5793;52.238;13.438;2022-10-15T07:43:10;15.90;99.90
11474;DHT22;5793;52.238;13.438;2022-10-15T07:45:40;16.10;99.90
11474;DHT22;5793;52.238;13.438;2022-10-15T07:48:07;16.30;99.90
11474;DHT22;5793;52.238;13.438;2022-10-15T07:50:35;16.50;99.90
11474;DHT22;5793;52.238;13.438;2022-10-15T07:53:07;16.80;99.90
11474;DHT22;5793;52.238;13.438;2022-10-15T07:55:35;17.10;99.90
11474;DHT22;5793;52.238;13.438;2022-10-15T07:58:03;17.30;99.90
11474;DHT22;5793;52.238;13.438;2022-10-15T08:00:33;17.50;99.90
11474;DHT22;5793;52.238;13.438;2022-10-15T08:03:02;17.60;99.90
11474;DHT22;5793;52.238;13.438;2022-10-15T08:05:30;17.50;99.90
11474;DHT22;5793;52.238;13.438;2022-10-15T08:07:58;17.40;99.90
11474;DHT22;5793;52.238;13.438;2022-10-15T08:10:26;17.50;99.90
11474;DHT22;5793;52.238;13.438;2022-10-15T08:12:54;17.60;99.90
11474;DHT22;5793;52.238;13.438;2022-10-15T08:15:22;17.60;99.90
11474;DHT22;5793;52.238;13.438;2022-10-15T08:17:49;17.70;99.90
11474;DHT22;5793;52.238;13.438;2022-10-15T08:20:19;17.90;99.90
11474;DHT22;5793;52.238;13.438;2022-10-15T08:22:46;18.00;99.90
11474;DHT22;5793;52.238;13.438;2022-10-15T08:25:14;18.10;99.90
11474;DHT22;5793;52.238;13.438;2022-10-15T08:27:42;18.10;99.90
11474;DHT22;5793;52.238;13.438;2022-10-15T08:30:10;18.30;99.90
11474;DHT22;5793;52.238;13.438;2022-10-15T08:32:38;18.20;99.90
11474;DHT22;5793;52.238;13.438;2022-10-15T08:35:06;18.00;99.90
11474;DHT22;5793;52.238;13.438;2022-10-15T08:37:35;17.80;99.90
11474;DHT22;5793;52.238;13.438;2022-10-15T08:40:04;17.60;99.90
11474;DHT22;5793;52.238;13.438;2022-10-15T08:42:37;17.40;99.90
11474;DHT22;5793;52.238;13.438;2022-10-15T08:45:10;17.40;99.90
11474;DHT22;5793;52.238;13.438;2022-10-15T08:47:41;17.30;99.90
11474;DHT22;5793;52.238;13.438;2022-10-15T08:50:16;17.40;99.90
11474;DHT22;5793;52.238;13.438;2022-10-15T08:52:49;17.70;99.90
11474;DHT22;5793;52.238;13.438;2022-10-15T08:55:19;18.10;99.90
11474;DHT22;5793;52.238;13.438;2022-10-15T08:57:52;18.60;99.90
11474;DHT22;5793;52.238;13.438;2022-10-15T09:00:27;19.40;99.90
11474;DHT22;5793;52.238;13.438;2022-10-15T09:03:00;19.90;99.90
11474;DHT22;5793;52.238;13.438;2022-10-15T09:05:38;19.80;99.90
11474;DHT22;5793;52.238;13.438;2022-10-15T09:08:19;19.70;99.90
11474;DHT22;5793;52.238;13.438;2022-10-15T09:10:54;19.60;99.90
11474;DHT22;5793;52.238;13.438;2022-10-15T09:13:27;19.40;99.90
11474;DHT22;5793;52.238;13.438;2022-10-15T09:15:58;19.10;99.90
11474;DHT22;5793;52.238;13.438;2022-10-15T09:18:31;18.90;99.90
11474;DHT22;5793;52.238;13.438;2022-10-15T09:21:01;19.00;99.90
11474;DHT22;5793;52.238;13.438;2022-10-15T09:23:32;19.10;99.90
11474;DHT22;5793;52.238;13.438;2022-10-15T09:26:06;19.40;99.90
11474;DHT22;5793;52.238;13.438;2022-10-15T09:28:45;19.40;99.90
11474;DHT22;5793;52.238;13.438;2022-10-15T09:31:19;19.30;99.90
11474;DHT22;5793;52.238;13.438;2022-10-15T09:33:52;19.20;99.90
11474;DHT22;5793;52.238;13.438;2022-10-15T09:36:32;19.10;99.90
11474;DHT22;5793;52.238;13.438;2022-10-15T09:39:15;19.00;99.90
11474;DHT22;5793;52.238;13.438;2022-10-15T09:41:54;19.10;99.90
11474;DHT22;5793;52.238;13.438;2022-10-15T09:44:32;19.30;99.90
11474;DHT22;5793;52.238;13.438;2022-10-15T09:47:01;19.60;99.90
11474;DHT22;5793;52.238;13.438;2022-10-15T09:49:40;20.10;99.90
11474;DHT22;5793;52.238;13.438;2022-10-15T09:52:12;20.70;99.90
11474;DHT22;5793;52.238;13.438;2022-10-15T09:54:51;20.80;99.90
11474;DHT22;5793;52.238;13.438;2022-10-15T09:57:22;20.70;99.90
11474;DHT22;5793;52.238;13.438;2022-10-15T09:59:53;20.40;99.90
11474;DHT22;5793;52.238;13.438;2022-10-15T10:02:22;20.00;99.90
11474;DHT22;5793;52.238;13.438;2022-10-15T10:04:51;19.80;99.90
11474;DHT22;5793;52.238;13.438;2022-10-15T10:07:37;19.50;99.90
11474;DHT22;5793;52.238;13.438;2022-10-15T10:10:22;19.30;99.90
11474;DHT22;5793;52.238;13.438;2022-10-15T10:12:51;19.30;99.90
11474;DHT22;5793;52.238;13.438;2022-10-15T10:15:29;19.20;99.90
11474;DHT22;5793;52.238;13.438;2022-10-15T10:17:57;19.10;99.90
11474;DHT22;5793;52.238;13.438;2022-10-15T10:20:26;18.90;99.90
11474;DHT22;5793;52.238;13.438;2022-10-15T10:22:56;18.80;99.90
11474;DHT22;5793;52.238;13.438;2022-10-15T10:25:34;18.60;99.90
11474;DHT22;5793;52.238;13.438;2022-10-15T10:28:14;18.70;99.90
11474;DHT22;5793;52.238;13.438;2022-10-15T10:30:50;18.60;99.90
11474;DHT22;5793;52.238;13.438;2022-10-15T10:33:25;18.50;99.90
11474;DHT22;5793;52.238;13.438;2022-10-15T10:35:54;18.60;99.90
11474;DHT22;5793;52.238;13.438;2022-10-15T10:38:24;18.70;99.90
11474;DHT22;5793;52.238;13.438;2022-10-15T10:40:55;18.80;99.90
11474;DHT22;5793;52.238;13.438;2022-10-15T10:43:26;18.70;99.90
11474;DHT22;5793;52.238;13.438;2022-10-15T10:45:58;18.70;99.90
11474;DHT22;5793;52.238;13.438;2022-10-15T10:48:27;18.70;99.90
11474;DHT22;5793;52.238;13.438;2022-10-15T10:51:07;18.70;99.90
11474;DHT22;5793;52.238;13.438;2022-10-15T10:53:49;18.70;99.90
11474;DHT22;5793;52.238;13.438;2022-10-15T10:56:22;18.60;99.90
11474;DHT22;5793;52.238;13.438;2022-10-15T10:58:57;18.40;99.90
11474;DHT22;5793;52.238;13.438;2022-10-15T11:01:26;18.10;99.90
11474;DHT22;5793;52.238;13.438;2022-10-15T11:03:55;18.00;99.90
11474;DHT22;5793;52.238;13.438;2022-10-15T11:06:35;17.90;99.90
11474;DHT22;5793;52.238;13.438;2022-10-15T11:09:14;17.90;99.90
11474;DHT22;5793;52.238;13.438;2022-10-15T11:11:56;17.90;99.90
11474;DHT22;5793;52.238;13.438;2022-10-15T11:14:31;17.80;99.90
11474;DHT22;5793;52.238;13.438;2022-10-15T11:17:15;17.80;99.90
11474;DHT22;5793;52.238;13.438;2022-10-15T11:19:49;17.80;99.90
11474;DHT22;5793;52.238;13.438;2022-10-15T11:22:46;18.00;99.90
11474;DHT22;5793;52.238;13.438;2022-10-15T11:25:30;18.30;99.90
11474;DHT22;5793;52.238;13.438;2022-10-15T11:28:20;18.40;99.90
11474;DHT22;5793;52.238;13.438;2022-10-15T11:30:57;18.80;99.90
11474;DHT22;5793;52.238;13.438;2022-10-15T11:33:39;19.20;99.90
11474;DHT22;5793;52.238;13.438;2022-10-15T11:36:31;19.30;99.90
11474;DHT22;5793;52.238;13.438;2022-10-15T11:39:12;19.40;99.90
11474;DHT22;5793;52.238;13.438;2022-10-15T11:41:48;19.40;99.90
11474;DHT22;5793;52.238;13.438;2022-10-15T11:44:30;19.50;99.90
11474;DHT22;5793;52.238;13.438;2022-10-15T11:47:13;19.70;99.90
11474;DHT22;5793;52.238;13.438;2022-10-15T11:49:51;20.10;99.90
11474;DHT22;5793;52.238;13.438;2022-10-15T11:52:33;20.60;99.90
11474;DHT22;5793;52.238;13.438;2022-10-15T11:55:07;20.80;99.90
11474;DHT22;5793;52.238;13.438;2022-10-15T11:57:38;20.70;99.90
11474;DHT22;5793;52.238;13.438;2022-10-15T12:00:18;20.50;99.90
11474;DHT22;5793;52.238;13.438;2022-10-15T12:02:50;20.30;99.90
11474;DHT22;5793;52.238;13.438;2022-10-15T12:05:23;19.80;99.90
11474;DHT22;5793;52.238;13.438;2022-10-15T12:07:54;19.90;99.90
11474;DHT22;5793;52.238;13.438;2022-10-15T12:10:32;20.00;99.90
11474;DHT22;5793;52.238;13.438;2022-10-15T12:13:07;20.00;99.90
11474;DHT22;5793;52.238;13.438;2022-10-15T12:15:41;19.90;99.90
11474;DHT22;5793;52.238;13.438;2022-10-15T12:18:17;19.80;99.90
11474;DHT22;5793;52.238;13.438;2022-10-15T12:20:46;19.70;99.90
11474;DHT22;5793;52.238;13.438;2022-10-15T12:23:23;19.60;99.90
11474;DHT22;5793;52.238;13.438;2022-10-15T12:25:52;19.60;99.90
11474;DHT22;5793;52.238;13.438;2022-10-15T12:28:21;19.60;99.90
11474;DHT22;5793;52.238;13.438;2022-10-15T12:30:59;19.50;99.90
11474;DHT22;5793;52.238;13.438;2022-10-15T12:33:32;19.60;99.90
11474;DHT22;5793;52.238;13.438;2022-10-15T12:36:03;19.50;99.90
11474;DHT22;5793;52.238;13.438;2022-10-15T12:38:36;19.40;99.90
11474;DHT22;5793;52.238;13.438;2022-10-15T12:41:08;19.40;99.90
11474;DHT22;5793;52.238;13.438;2022-10-15T12:43:40;19.20;99.90
11474;DHT22;5793;52.238;13.438;2022-10-15T12:46:11;19.10;99.90
11474;DHT22;5793;52.238;13.438;2022-10-15T12:48:41;19.00;99.90
11474;DHT22;5793;52.238;13.438;2022-10-15T12:51:36;18.90;99.90
11474;DHT22;5793;52.238;13.438;2022-10-15T12:54:40;18.80;99.90
11474;DHT22;5793;52.238;13.438;2022-10-15T13:00:36;18.40;99.90
11474;DHT22;5793;52.238;13.438;2022-10-15T13:03:14;18.40;99.90
11474;DHT22;5793;52.238;13.438;2022-10-15T13:05:43;18.40;99.90
11474;DHT22;5793;52.238;13.438;2022-10-15T13:08:20;18.40;99.90
11474;DHT22;5793;52.238;13.438;2022-10-15T13:10:51;18.50;99.90
11474;DHT22;5793;52.238;13.438;2022-10-15T13:13:22;18.40;99.90
11474;DHT22;5793;52.238;13.438;2022-10-15T13:15:55;18.40;99.90
11474;DHT22;5793;52.238;13.438;2022-10-15T13:18:26;18.40;99.90
11474;DHT22;5793;52.238;13.438;2022-10-15T13:20:55;18.40;99.90
11474;DHT22;5793;52.238;13.438;2022-10-15T13:23:25;18.40;99.90
11474;DHT22;5793;52.238;13.438;2022-10-15T13:26:16;18.60;99.90
11474;DHT22;5793;52.238;13.438;2022-10-15T13:28:45;18.70;99.90
11474;DHT22;5793;52.238;13.438;2022-10-15T13:31:19;18.80;99.90
11474;DHT22;5793;52.238;13.438;2022-10-15T13:33:57;19.00;99.90
11474;DHT22;5793;52.238;13.438;2022-10-15T13:36:29;19.00;99.90
11474;DHT22;5793;52.238;13.438;2022-10-15T13:38:59;19.10;99.90
11474;DHT22;5793;52.238;13.438;2022-10-15T13:41:32;19.10;99.90
11474;DHT22;5793;52.238;13.438;2022-10-15T13:44:00;19.10;99.90
11474;DHT22;5793;52.238;13.438;2022-10-15T13:46:31;19.20;99.90
11474;DHT22;5793;52.238;13.438;2022-10-15T13:49:02;19.10;99.90
11474;DHT22;5793;52.238;13.438;2022-10-15T13:51:33;19.00;99.90
11474;DHT22;5793;52.238;13.438;2022-10-15T13:54:07;19.00;99.90
11474;DHT22;5793;52.238;13.438;2022-10-15T13:56:36;19.00;99.90
11474;DHT22;5793;52.238;13.438;2022-10-15T13:59:04;19.00;99.90
11474;DHT22;5793;52.238;13.438;2022-10-15T14:01:32;19.10;99.90
11474;DHT22;5793;52.238;13.438;2022-10-15T14:04:03;19.10;99.90
11474;DHT22;5793;52.238;13.438;2022-10-15T14:06:32;19.00;99.90
11474;DHT22;5793;52.238;13.438;2022-10-15T14:09:01;18.90;99.90
11474;DHT22;5793;52.238;13.438;2022-10-15T14:11:37;18.90;99.90
11474;DHT22;5793;52.238;13.438;2022-10-15T14:14:27;18.90;99.90
11474;DHT22;5793;52.238;13.438;2022-10-15T14:16:57;18.90;99.90
11474;DHT22;5793;52.238;13.438;2022-10-15T14:19:27;18.90;99.90
11474;DHT22;5793;52.238;13.438;2022-10-15T14:21:57;18.90;99.90
11474;DHT22;5793;52.238;13.438;2022-10-15T14:24:29;18.90;99.90
11474;DHT22;5793;52.238;13.438;2022-10-15T14:27:04;18.80;99.90
11474;DHT22;5793;52.238;13.438;2022-10-15T14:29:39;18.70;99.90
11474;DHT22;5793;52.238;13.438;2022-10-15T14:32:23;18.60;99.90
11474;DHT22;5793;52.238;13.438;2022-10-15T14:34:53;18.30;99.90
11474;DHT22;5793;52.238;13.438;2022-10-15T14:37:29;18.10;99.90
11474;DHT22;5793;52.238;13.438;2022-10-15T14:40:13;17.90;99.90
11474;DHT22;5793;52.238;13.438;2022-10-15T14:42:43;17.90;99.90
11474;DHT22;5793;52.238;13.438;2022-10-15T14:45:12;17.90;99.90
11474;DHT22;5793;52.238;13.438;2022-10-15T14:47:40;17.90;99.90
11474;DHT22;5793;52.238;13.438;2022-10-15T14:50:12;17.90;99.90
11474;DHT22;5793;52.238;13.438;2022-10-15T14:52:43;17.80;99.90
11474;DHT22;5793;52.238;13.438;2022-10-15T14:55:16;17.70;99.90
11474;DHT22;5793;52.238;13.438;2022-10-15T14:57:46;17.70;99.90
11474;DHT22;5793;52.238;13.438;2022-10-15T15:00:21;17.60;99.90
11474;DHT22;5793;52.238;13.438;2022-10-15T15:02:50;17.60;99.90
11474;DHT22;5793;52.238;13.438;2022-10-15T15:05:22;17.60;99.90
11474;DHT22;5793;52.238;13.438;2022-10-15T15:07:50;17.60;99.90
11474;DHT22;5793;52.238;13.438;2022-10-15T15:10:19;17.60;99.90
11474;DHT22;5793;52.238;13.438;2022-10-15T15:12:50;17.50;99.90
11474;DHT22;5793;52.238;13.438;2022-10-15T15:15:20;17.40;99.90
11474;DHT22;5793;52.238;13.438;2022-10-15T15:17:48;17.40;99.90
11474;DHT22;5793;52.238;13.438;2022-10-15T15:20:17;17.30;99.90
11474;DHT22;5793;52.238;13.438;2022-10-15T15:22:48;17.30;99.90
11474;DHT22;5793;52.238;13.438;2022-10-15T15:25:18;17.30;99.90
11474;DHT22;5793;52.238;13.438;2022-10-15T15:27:47;17.20;99.90
11474;DHT22;5793;52.238;13.438;2022-10-15T15:30:17;17.10;99.90
11474;DHT22;5793;52.238;13.438;2022-10-15T15:32:45;17.00;99.90
11474;DHT22;5793;52.238;13.438;2022-10-15T15:35:18;16.80;99.90
11474;DHT22;5793;52.238;13.438;2022-10-15T15:37:48;16.70;99.90
11474;DHT22;5793;52.238;13.438;2022-10-15T15:40:16;16.60;99.90
11474;DHT22;5793;52.238;13.438;2022-10-15T15:42:44;16.50;99.90
11474;DHT22;5793;52.238;13.438;2022-10-15T15:45:17;16.40;99.90
11474;DHT22;5793;52.238;13.438;2022-10-15T15:47:46;16.30;99.90
11474;DHT22;5793;52.238;13.438;2022-10-15T15:50:15;16.20;99.90
11474;DHT22;5793;52.238;13.438;2022-10-15T15:52:43;16.10;99.90
11474;DHT22;5793;52.238;13.438;2022-10-15T15:55:12;15.90;99.90
11474;DHT22;5793;52.238;13.438;2022-10-15T15:57:40;15.90;99.90
11474;DHT22;5793;52.238;13.438;2022-10-15T16:00:09;15.80;99.90
11474;DHT22;5793;52.238;13.438;2022-10-15T16:02:37;15.80;99.90
11474;DHT22;5793;52.238;13.438;2022-10-15T16:05:07;15.70;99.90